sensor_id;sensor_type;location;lat;lon;timestamp;P1;durP1;ratioP1;P2;durP2;ratioP2
61525;SDS011;47394;41.366;-8.738;2022-12-07T00:00:34;171.52;;;126.50;;
61525;SDS011;47394;41.366;-8.738;2022-12-07T00:03:34;161.18;;;124.88;;
61525;SDS011;47394;41.366;-8.738;2022-12-07T00:06:43;155.77;;;117.63;;
61525;SDS011;47394;41.366;-8.738;2022-12-07T00:09:43;185.65;;;135.85;;
61525;SDS011;47394;41.366;-8.738;2022-12-07T00:12:42;164.15;;;123.40;;
61525;SDS011;47394;41.366;-8.738;2022-12-07T00:15:42;164.23;;;119.13;;
61525;SDS011;47394;41.366;-8.738;2022-12-07T00:18:42;175.55;;;132.43;;
61525;SDS011;47394;41.366;-8.738;2022-12-07T00:21:42;154.85;;;116.45;;
61525;SDS011;47394;41.366;-8.738;2022-12-07T00:24:41;148.82;;;110.30;;
61525;SDS011;47394;41.366;-8.738;2022-12-07T00:27:41;146.20;;;111.28;;
61525;SDS011;47394;41.366;-8.738;2022-12-07T00:30:40;136.93;;;105.93;;
61525;SDS011;47394;41.366;-8.738;2022-12-07T00:33:39;139.23;;;106.13;;
61525;SDS011;47394;41.366;-8.738;2022-12-07T00:36:39;145.05;;;107.72;;
61525;SDS011;47394;41.366;-8.738;2022-12-07T00:39:38;139.20;;;106.82;;
61525;SDS011;47394;41.366;-8.738;2022-12-07T00:42:37;155.43;;;114.65;;
61525;SDS011;47394;41.366;-8.738;2022-12-07T00:45:36;149.95;;;111.97;;
61525;SDS011;47394;41.366;-8.738;2022-12-07T00:48:36;127.80;;;99.40;;
61525;SDS011;47394;41.366;-8.738;2022-12-07T00:51:35;129.40;;;100.20;;
61525;SDS011;47394;41.366;-8.738;2022-12-07T00:54:34;132.57;;;99.75;;
61525;SDS011;47394;41.366;-8.738;2022-12-07T00:57:34;132.10;;;98.95;;
61525;SDS011;47394;41.366;-8.738;2022-12-07T01:00:37;146.00;;;107.32;;
61525;SDS011;47394;41.366;-8.738;2022-12-07T01:03:37;123.30;;;98.70;;
61525;SDS011;47394;41.366;-8.738;2022-12-07T01:06:37;135.18;;;107.70;;
61525;SDS011;47394;41.366;-8.738;2022-12-07T01:09:37;135.82;;;102.95;;
61525;SDS011;47394;41.366;-8.738;2022-12-07T01:12:36;157.27;;;120.22;;
61525;SDS011;47394;41.366;-8.738;2022-12-07T01:15:43;150.30;;;113.90;;
61525;SDS011;47394;41.366;-8.738;2022-12-07T01:18:44;154.50;;;116.30;;
61525;SDS011;47394;41.366;-8.738;2022-12-07T01:21:44;159.60;;;116.63;;
61525;SDS011;47394;41.366;-8.738;2022-12-07T01:24:44;163.80;;;122.68;;
61525;SDS011;47394;41.366;-8.738;2022-12-07T01:27:43;159.60;;;117.10;;
61525;SDS011;47394;41.366;-8.738;2022-12-07T01:30:42;152.02;;;113.65;;
61525;SDS011;47394;41.366;-8.738;2022-12-07T01:33:42;134.75;;;107.40;;
61525;SDS011;47394;41.366;-8.738;2022-12-07T01:36:42;135.68;;;103.88;;
61525;SDS011;47394;41.366;-8.738;2022-12-07T01:39:41;145.30;;;112.40;;
61525;SDS011;47394;41.366;-8.738;2022-12-07T01:42:41;128.95;;;101.75;;
61525;SDS011;47394;41.366;-8.738;2022-12-07T01:45:59;133.80;;;105.75;;
61525;SDS011;47394;41.366;-8.738;2022-12-07T01:49:00;137.18;;;108.63;;
61525;SDS011;47394;41.366;-8.738;2022-12-07T01:55:06;146.23;;;114.88;;
61525;SDS011;47394;41.366;-8.738;2022-12-07T01:58:08;141.20;;;109.87;;
61525;SDS011;47394;41.366;-8.738;2022-12-07T02:01:08;151.23;;;118.03;;
61525;SDS011;47394;41.366;-8.738;2022-12-07T02:04:10;145.02;;;108.32;;
61525;SDS011;47394;41.366;-8.738;2022-12-07T02:07:10;148.88;;;116.28;;
61525;SDS011;47394;41.366;-8.738;2022-12-07T02:10:18;153.02;;;117.88;;
61525;SDS011;47394;41.366;-8.738;2022-12-07T02:13:19;141.55;;;106.68;;
61525;SDS011;47394;41.366;-8.738;2022-12-07T02:17:24;141.77;;;110.97;;
61525;SDS011;47394;41.366;-8.738;2022-12-07T02:20:00;149.43;;;114.13;;
61525;SDS011;47394;41.366;-8.738;2022-12-07T02:26:22;141.82;;;111.00;;
61525;SDS011;47394;41.366;-8.738;2022-12-07T02:29:45;145.13;;;111.60;;
61525;SDS011;47394;41.366;-8.738;2022-12-07T02:36:07;143.55;;;114.10;;
61525;SDS011;47394;41.366;-8.738;2022-12-07T02:42:41;147.13;;;111.43;;
61525;SDS011;47394;41.366;-8.738;2022-12-07T02:45:45;143.68;;;116.38;;
61525;SDS011;47394;41.366;-8.738;2022-12-07T02:48:49;144.05;;;116.00;;
61525;SDS011;47394;41.366;-8.738;2022-12-07T02:51:49;138.95;;;109.47;;
61525;SDS011;47394;41.366;-8.738;2022-12-07T02:54:49;131.07;;;106.43;;
61525;SDS011;47394;41.366;-8.738;2022-12-07T03:01:16;126.28;;;101.05;;
61525;SDS011;47394;41.366;-8.738;2022-12-07T03:04:25;123.30;;;97.82;;
61525;SDS011;47394;41.366;-8.738;2022-12-07T03:10:48;132.38;;;104.13;;
61525;SDS011;47394;41.366;-8.738;2022-12-07T03:13:59;134.15;;;106.63;;
61525;SDS011;47394;41.366;-8.738;2022-12-07T03:17:12;129.35;;;99.93;;
61525;SDS011;47394;41.366;-8.738;2022-12-07T03:20:16;137.23;;;108.35;;
61525;SDS011;47394;41.366;-8.738;2022-12-07T03:23:24;126.35;;;98.40;;
61525;SDS011;47394;41.366;-8.738;2022-12-07T03:26:29;124.68;;;95.88;;
61525;SDS011;47394;41.366;-8.738;2022-12-07T03:29:37;134.32;;;100.85;;
61525;SDS011;47394;41.366;-8.738;2022-12-07T03:32:39;133.15;;;104.43;;
61525;SDS011;47394;41.366;-8.738;2022-12-07T03:35:45;126.68;;;102.28;;
61525;SDS011;47394;41.366;-8.738;2022-12-07T03:39:01;120.60;;;94.63;;
61525;SDS011;47394;41.366;-8.738;2022-12-07T03:42:12;131.02;;;106.10;;
61525;SDS011;47394;41.366;-8.738;2022-12-07T03:45:12;117.93;;;97.97;;
61525;SDS011;47394;41.366;-8.738;2022-12-07T03:55:09;129.15;;;98.47;;
61525;SDS011;47394;41.366;-8.738;2022-12-07T03:58:12;114.72;;;94.03;;
61525;SDS011;47394;41.366;-8.738;2022-12-07T04:01:13;132.73;;;100.22;;
61525;SDS011;47394;41.366;-8.738;2022-12-07T04:04:13;126.25;;;97.43;;
61525;SDS011;47394;41.366;-8.738;2022-12-07T04:07:12;114.85;;;91.43;;
61525;SDS011;47394;41.366;-8.738;2022-12-07T04:10:12;125.80;;;95.25;;
61525;SDS011;47394;41.366;-8.738;2022-12-07T04:13:11;124.95;;;100.32;;
61525;SDS011;47394;41.366;-8.738;2022-12-07T04:16:20;122.78;;;100.25;;
61525;SDS011;47394;41.366;-8.738;2022-12-07T04:19:20;116.30;;;98.35;;
61525;SDS011;47394;41.366;-8.738;2022-12-07T04:22:19;117.10;;;94.53;;
61525;SDS011;47394;41.366;-8.738;2022-12-07T04:25:19;116.35;;;92.72;;
61525;SDS011;47394;41.366;-8.738;2022-12-07T04:28:18;106.70;;;86.93;;
61525;SDS011;47394;41.366;-8.738;2022-12-07T04:31:18;114.75;;;94.13;;
61525;SDS011;47394;41.366;-8.738;2022-12-07T04:34:18;111.13;;;90.60;;
61525;SDS011;47394;41.366;-8.738;2022-12-07T04:37:17;108.55;;;87.65;;
61525;SDS011;47394;41.366;-8.738;2022-12-07T04:40:16;109.97;;;91.05;;
61525;SDS011;47394;41.366;-8.738;2022-12-07T04:43:16;117.72;;;92.28;;
61525;SDS011;47394;41.366;-8.738;2022-12-07T04:46:15;110.95;;;90.18;;
61525;SDS011;47394;41.366;-8.738;2022-12-07T04:49:14;106.15;;;86.35;;
61525;SDS011;47394;41.366;-8.738;2022-12-07T04:52:14;105.03;;;84.55;;
61525;SDS011;47394;41.366;-8.738;2022-12-07T04:55:13;107.07;;;83.70;;
61525;SDS011;47394;41.366;-8.738;2022-12-07T04:58:13;106.50;;;88.15;;
61525;SDS011;47394;41.366;-8.738;2022-12-07T05:01:13;114.97;;;91.88;;
61525;SDS011;47394;41.366;-8.738;2022-12-07T05:04:13;112.72;;;89.60;;
61525;SDS011;47394;41.366;-8.738;2022-12-07T05:07:12;119.68;;;91.72;;
61525;SDS011;47394;41.366;-8.738;2022-12-07T05:10:11;112.82;;;90.45;;
61525;SDS011;47394;41.366;-8.738;2022-12-07T05:13:29;121.25;;;92.63;;
61525;SDS011;47394;41.366;-8.738;2022-12-07T05:16:29;118.15;;;93.88;;
61525;SDS011;47394;41.366;-8.738;2022-12-07T05:19:28;114.38;;;93.35;;
61525;SDS011;47394;41.366;-8.738;2022-12-07T05:22:27;115.00;;;88.50;;
61525;SDS011;47394;41.366;-8.738;2022-12-07T05:25:26;108.20;;;83.75;;
61525;SDS011;47394;41.366;-8.738;2022-12-07T05:28:26;105.93;;;88.45;;
61525;SDS011;47394;41.366;-8.738;2022-12-07T05:31:25;113.30;;;85.97;;
61525;SDS011;47394;41.366;-8.738;2022-12-07T05:34:25;114.43;;;88.82;;
61525;SDS011;47394;41.366;-8.738;2022-12-07T05:37:24;118.55;;;88.60;;
61525;SDS011;47394;41.366;-8.738;2022-12-07T05:40:25;106.40;;;85.85;;
61525;SDS011;47394;41.366;-8.738;2022-12-07T05:43:42;108.03;;;85.38;;
61525;SDS011;47394;41.366;-8.738;2022-12-07T05:46:43;109.28;;;86.50;;
61525;SDS011;47394;41.366;-8.738;2022-12-07T05:49:42;103.72;;;81.13;;
61525;SDS011;47394;41.366;-8.738;2022-12-07T05:52:42;110.63;;;89.88;;
61525;SDS011;47394;41.366;-8.738;2022-12-07T05:55:41;109.55;;;87.32;;
61525;SDS011;47394;41.366;-8.738;2022-12-07T05:58:41;111.55;;;87.63;;
61525;SDS011;47394;41.366;-8.738;2022-12-07T06:01:40;106.50;;;82.00;;
61525;SDS011;47394;41.366;-8.738;2022-12-07T06:04:40;119.53;;;87.47;;
61525;SDS011;47394;41.366;-8.738;2022-12-07T06:07:40;110.40;;;88.18;;
61525;SDS011;47394;41.366;-8.738;2022-12-07T06:10:39;109.30;;;89.60;;
61525;SDS011;47394;41.366;-8.738;2022-12-07T06:13:57;114.82;;;88.35;;
61525;SDS011;47394;41.366;-8.738;2022-12-07T06:16:57;116.95;;;88.22;;
61525;SDS011;47394;41.366;-8.738;2022-12-07T06:19:57;113.00;;;86.80;;
61525;SDS011;47394;41.366;-8.738;2022-12-07T06:22:56;117.22;;;89.90;;
61525;SDS011;47394;41.366;-8.738;2022-12-07T06:25:55;107.95;;;85.65;;
61525;SDS011;47394;41.366;-8.738;2022-12-07T06:28:54;104.82;;;80.18;;
61525;SDS011;47394;41.366;-8.738;2022-12-07T06:31:54;103.90;;;83.32;;
61525;SDS011;47394;41.366;-8.738;2022-12-07T06:34:53;116.45;;;86.00;;
61525;SDS011;47394;41.366;-8.738;2022-12-07T06:37:52;98.32;;;80.22;;
61525;SDS011;47394;41.366;-8.738;2022-12-07T06:40:51;92.85;;;77.72;;
61525;SDS011;47394;41.366;-8.738;2022-12-07T06:43:52;91.95;;;76.38;;
61525;SDS011;47394;41.366;-8.738;2022-12-07T06:46:51;88.05;;;71.20;;
61525;SDS011;47394;41.366;-8.738;2022-12-07T06:49:51;84.65;;;70.45;;
61525;SDS011;47394;41.366;-8.738;2022-12-07T06:52:50;90.65;;;71.32;;
61525;SDS011;47394;41.366;-8.738;2022-12-07T06:55:49;91.55;;;71.03;;
61525;SDS011;47394;41.366;-8.738;2022-12-07T06:58:49;82.72;;;71.07;;
61525;SDS011;47394;41.366;-8.738;2022-12-07T07:01:48;86.28;;;71.43;;
61525;SDS011;47394;41.366;-8.738;2022-12-07T07:04:47;91.88;;;71.32;;
61525;SDS011;47394;41.366;-8.738;2022-12-07T07:07:46;77.35;;;63.10;;
61525;SDS011;47394;41.366;-8.738;2022-12-07T07:10:46;78.07;;;63.42;;
61525;SDS011;47394;41.366;-8.738;2022-12-07T07:13:45;83.07;;;67.00;;
61525;SDS011;47394;41.366;-8.738;2022-12-07T07:16:44;85.38;;;68.63;;
61525;SDS011;47394;41.366;-8.738;2022-12-07T07:19:44;76.15;;;64.25;;
61525;SDS011;47394;41.366;-8.738;2022-12-07T07:22:43;86.72;;;70.22;;
61525;SDS011;47394;41.366;-8.738;2022-12-07T07:25:42;87.85;;;70.32;;
61525;SDS011;47394;41.366;-8.738;2022-12-07T07:28:41;92.35;;;68.35;;
61525;SDS011;47394;41.366;-8.738;2022-12-07T07:31:41;86.72;;;70.60;;
61525;SDS011;47394;41.366;-8.738;2022-12-07T07:34:40;86.38;;;66.53;;
61525;SDS011;47394;41.366;-8.738;2022-12-07T07:37:39;83.30;;;64.13;;
61525;SDS011;47394;41.366;-8.738;2022-12-07T07:40:39;79.30;;;64.18;;
61525;SDS011;47394;41.366;-8.738;2022-12-07T07:43:39;75.05;;;59.80;;
61525;SDS011;47394;41.366;-8.738;2022-12-07T07:46:38;84.35;;;64.00;;
61525;SDS011;47394;41.366;-8.738;2022-12-07T07:49:37;86.68;;;68.55;;
61525;SDS011;47394;41.366;-8.738;2022-12-07T07:52:36;85.93;;;67.63;;
61525;SDS011;47394;41.366;-8.738;2022-12-07T07:55:36;74.40;;;61.85;;
61525;SDS011;47394;41.366;-8.738;2022-12-07T07:58:35;81.85;;;64.75;;
61525;SDS011;47394;41.366;-8.738;2022-12-07T08:01:34;85.57;;;66.85;;
61525;SDS011;47394;41.366;-8.738;2022-12-07T08:04:34;81.00;;;64.88;;
61525;SDS011;47394;41.366;-8.738;2022-12-07T08:07:34;83.93;;;66.97;;
61525;SDS011;47394;41.366;-8.738;2022-12-07T08:10:34;86.60;;;66.53;;
61525;SDS011;47394;41.366;-8.738;2022-12-07T08:13:33;88.90;;;66.07;;
61525;SDS011;47394;41.366;-8.738;2022-12-07T08:16:32;77.45;;;65.18;;
61525;SDS011;47394;41.366;-8.738;2022-12-07T08:19:33;79.38;;;63.90;;
61525;SDS011;47394;41.366;-8.738;2022-12-07T08:22:33;79.70;;;64.65;;
61525;SDS011;47394;41.366;-8.738;2022-12-07T08:25:32;72.75;;;60.38;;
61525;SDS011;47394;41.366;-8.738;2022-12-07T08:28:31;79.57;;;62.72;;
61525;SDS011;47394;41.366;-8.738;2022-12-07T08:31:31;79.60;;;61.30;;
61525;SDS011;47394;41.366;-8.738;2022-12-07T08:34:30;76.85;;;60.60;;
61525;SDS011;47394;41.366;-8.738;2022-12-07T08:37:29;78.47;;;60.53;;
61525;SDS011;47394;41.366;-8.738;2022-12-07T08:40:29;71.45;;;58.40;;
61525;SDS011;47394;41.366;-8.738;2022-12-07T08:43:28;69.70;;;55.53;;
61525;SDS011;47394;41.366;-8.738;2022-12-07T08:46:38;70.25;;;52.67;;
61525;SDS011;47394;41.366;-8.738;2022-12-07T08:49:39;59.70;;;51.50;;
61525;SDS011;47394;41.366;-8.738;2022-12-07T08:52:40;64.53;;;52.88;;
61525;SDS011;47394;41.366;-8.738;2022-12-07T08:55:41;63.13;;;54.22;;
61525;SDS011;47394;41.366;-8.738;2022-12-07T08:58:41;59.25;;;51.25;;
61525;SDS011;47394;41.366;-8.738;2022-12-07T09:01:40;60.75;;;50.53;;
61525;SDS011;47394;41.366;-8.738;2022-12-07T09:04:40;54.85;;;47.58;;
61525;SDS011;47394;41.366;-8.738;2022-12-07T09:07:39;55.20;;;48.35;;
61525;SDS011;47394;41.366;-8.738;2022-12-07T09:10:42;57.50;;;47.38;;
61525;SDS011;47394;41.366;-8.738;2022-12-07T09:13:42;53.08;;;45.00;;
61525;SDS011;47394;41.366;-8.738;2022-12-07T09:16:41;50.40;;;43.83;;
61525;SDS011;47394;41.366;-8.738;2022-12-07T09:19:40;54.65;;;48.70;;
61525;SDS011;47394;41.366;-8.738;2022-12-07T09:22:40;55.78;;;43.72;;
61525;SDS011;47394;41.366;-8.738;2022-12-07T09:25:41;52.70;;;41.45;;
61525;SDS011;47394;41.366;-8.738;2022-12-07T09:28:40;50.38;;;40.75;;
61525;SDS011;47394;41.366;-8.738;2022-12-07T09:31:40;50.55;;;41.22;;
61525;SDS011;47394;41.366;-8.738;2022-12-07T09:34:39;46.28;;;41.08;;
61525;SDS011;47394;41.366;-8.738;2022-12-07T09:37:38;45.50;;;40.28;;
61525;SDS011;47394;41.366;-8.738;2022-12-07T09:40:37;44.60;;;39.90;;
61525;SDS011;47394;41.366;-8.738;2022-12-07T09:43:42;52.03;;;41.55;;
61525;SDS011;47394;41.366;-8.738;2022-12-07T09:46:41;49.42;;;39.67;;
61525;SDS011;47394;41.366;-8.738;2022-12-07T09:49:41;47.13;;;39.42;;
61525;SDS011;47394;41.366;-8.738;2022-12-07T09:52:41;46.75;;;39.05;;
61525;SDS011;47394;41.366;-8.738;2022-12-07T09:55:41;48.72;;;40.35;;
61525;SDS011;47394;41.366;-8.738;2022-12-07T09:58:42;52.08;;;42.35;;
61525;SDS011;47394;41.366;-8.738;2022-12-07T10:01:42;52.83;;;44.05;;
61525;SDS011;47394;41.366;-8.738;2022-12-07T10:04:44;60.15;;;45.88;;
61525;SDS011;47394;41.366;-8.738;2022-12-07T10:07:48;53.70;;;42.80;;
61525;SDS011;47394;41.366;-8.738;2022-12-07T10:10:52;55.85;;;39.47;;
61525;SDS011;47394;41.366;-8.738;2022-12-07T10:14:12;49.40;;;36.85;;
61525;SDS011;47394;41.366;-8.738;2022-12-07T10:17:28;42.20;;;35.40;;
61525;SDS011;47394;41.366;-8.738;2022-12-07T10:20:30;44.08;;;35.15;;
61525;SDS011;47394;41.366;-8.738;2022-12-07T10:23:29;47.58;;;34.38;;
61525;SDS011;47394;41.366;-8.738;2022-12-07T10:26:35;52.78;;;38.33;;
61525;SDS011;47394;41.366;-8.738;2022-12-07T10:29:38;46.10;;;35.60;;
61525;SDS011;47394;41.366;-8.738;2022-12-07T10:32:59;51.00;;;35.67;;
61525;SDS011;47394;41.366;-8.738;2022-12-07T10:36:00;45.67;;;35.97;;
61525;SDS011;47394;41.366;-8.738;2022-12-07T10:39:18;40.90;;;33.33;;
61525;SDS011;47394;41.366;-8.738;2022-12-07T10:42:35;52.03;;;34.00;;
61525;SDS011;47394;41.366;-8.738;2022-12-07T10:45:35;41.10;;;32.55;;
61525;SDS011;47394;41.366;-8.738;2022-12-07T10:59:41;38.28;;;31.08;;
61525;SDS011;47394;41.366;-8.738;2022-12-07T11:03:00;38.10;;;29.00;;
61525;SDS011;47394;41.366;-8.738;2022-12-07T11:06:37;35.17;;;27.13;;
61525;SDS011;47394;41.366;-8.738;2022-12-07T11:29:44;20.95;;;18.20;;
61525;SDS011;47394;41.366;-8.738;2022-12-07T11:38:57;20.52;;;16.60;;
61525;SDS011;47394;41.366;-8.738;2022-12-07T11:42:22;26.38;;;15.88;;
61525;SDS011;47394;41.366;-8.738;2022-12-07T11:45:33;19.63;;;14.77;;
61525;SDS011;47394;41.366;-8.738;2022-12-07T11:48:58;17.42;;;13.55;;
61525;SDS011;47394;41.366;-8.738;2022-12-07T11:52:02;17.23;;;14.63;;
61525;SDS011;47394;41.366;-8.738;2022-12-07T11:55:05;18.73;;;14.40;;
61525;SDS011;47394;41.366;-8.738;2022-12-07T12:01:46;26.23;;;12.50;;
61525;SDS011;47394;41.366;-8.738;2022-12-07T12:04:55;16.95;;;13.45;;
61525;SDS011;47394;41.366;-8.738;2022-12-07T12:17:46;17.80;;;13.05;;
61525;SDS011;47394;41.366;-8.738;2022-12-07T12:21:14;21.52;;;11.75;;
61525;SDS011;47394;41.366;-8.738;2022-12-07T12:24:18;16.73;;;12.15;;
61525;SDS011;47394;41.366;-8.738;2022-12-07T12:27:25;16.67;;;10.65;;
61525;SDS011;47394;41.366;-8.738;2022-12-07T12:30:36;12.95;;;11.05;;
61525;SDS011;47394;41.366;-8.738;2022-12-07T12:33:36;13.00;;;8.70;;
61525;SDS011;47394;41.366;-8.738;2022-12-07T12:39:50;13.18;;;7.93;;
61525;SDS011;47394;41.366;-8.738;2022-12-07T12:43:02;9.93;;;6.40;;
61525;SDS011;47394;41.366;-8.738;2022-12-07T12:46:36;8.50;;;6.32;;
61525;SDS011;47394;41.366;-8.738;2022-12-07T12:49:41;9.15;;;6.20;;
61525;SDS011;47394;41.366;-8.738;2022-12-07T13:02:21;12.27;;;6.75;;
61525;SDS011;47394;41.366;-8.738;2022-12-07T13:05:28;6.60;;;5.03;;
61525;SDS011;47394;41.366;-8.738;2022-12-07T13:08:28;7.20;;;5.17;;
61525;SDS011;47394;41.366;-8.738;2022-12-07T13:11:29;5.25;;;4.15;;
61525;SDS011;47394;41.366;-8.738;2022-12-07T13:20:40;5.82;;;4.05;;
61525;SDS011;47394;41.366;-8.738;2022-12-07T13:26:44;6.00;;;4.47;;
61525;SDS011;47394;41.366;-8.738;2022-12-07T13:29:47;7.05;;;5.32;;
61525;SDS011;47394;41.366;-8.738;2022-12-07T13:33:03;6.47;;;4.70;;
61525;SDS011;47394;41.366;-8.738;2022-12-07T13:36:03;7.80;;;5.15;;
61525;SDS011;47394;41.366;-8.738;2022-12-07T13:39:24;8.15;;;5.38;;
61525;SDS011;47394;41.366;-8.738;2022-12-07T13:42:28;8.57;;;5.18;;
61525;SDS011;47394;41.366;-8.738;2022-12-07T13:45:32;6.43;;;4.60;;
61525;SDS011;47394;41.366;-8.738;2022-12-07T13:48:48;8.18;;;5.20;;
61525;SDS011;47394;41.366;-8.738;2022-12-07T13:52:06;7.20;;;4.97;;
61525;SDS011;47394;41.366;-8.738;2022-12-07T13:55:15;9.68;;;5.18;;
61525;SDS011;47394;41.366;-8.738;2022-12-07T13:58:16;8.18;;;5.65;;
61525;SDS011;47394;41.366;-8.738;2022-12-07T14:01:25;6.55;;;5.00;;
61525;SDS011;47394;41.366;-8.738;2022-12-07T14:04:36;9.52;;;6.05;;
61525;SDS011;47394;41.366;-8.738;2022-12-07T14:07:47;10.55;;;6.25;;
61525;SDS011;47394;41.366;-8.738;2022-12-07T14:16:59;9.45;;;6.45;;
61525;SDS011;47394;41.366;-8.738;2022-12-07T14:20:03;8.20;;;6.05;;
61525;SDS011;47394;41.366;-8.738;2022-12-07T14:23:24;13.43;;;6.30;;
61525;SDS011;47394;41.366;-8.738;2022-12-07T14:26:24;7.70;;;6.25;;
61525;SDS011;47394;41.366;-8.738;2022-12-07T14:29:31;10.40;;;7.35;;
61525;SDS011;47394;41.366;-8.738;2022-12-07T14:32:34;9.65;;;7.05;;
61525;SDS011;47394;41.366;-8.738;2022-12-07T14:35:34;8.60;;;6.53;;
61525;SDS011;47394;41.366;-8.738;2022-12-07T14:38:36;9.40;;;7.30;;
61525;SDS011;47394;41.366;-8.738;2022-12-07T14:41:35;13.48;;;7.30;;
61525;SDS011;47394;41.366;-8.738;2022-12-07T14:44:35;8.65;;;6.80;;
61525;SDS011;47394;41.366;-8.738;2022-12-07T14:47:34;10.75;;;7.20;;
61525;SDS011;47394;41.366;-8.738;2022-12-07T14:50:35;13.43;;;8.05;;
61525;SDS011;47394;41.366;-8.738;2022-12-07T14:53:39;10.10;;;7.90;;
61525;SDS011;47394;41.366;-8.738;2022-12-07T14:56:39;12.55;;;7.28;;
61525;SDS011;47394;41.366;-8.738;2022-12-07T14:59:38;15.25;;;7.85;;
61525;SDS011;47394;41.366;-8.738;2022-12-07T15:02:37;11.77;;;7.97;;
61525;SDS011;47394;41.366;-8.738;2022-12-07T15:05:40;12.05;;;8.27;;
61525;SDS011;47394;41.366;-8.738;2022-12-07T15:08:39;13.10;;;7.57;;
61525;SDS011;47394;41.366;-8.738;2022-12-07T15:11:39;9.38;;;6.53;;
61525;SDS011;47394;41.366;-8.738;2022-12-07T15:14:38;8.88;;;6.68;;
61525;SDS011;47394;41.366;-8.738;2022-12-07T15:17:37;8.32;;;5.78;;
61525;SDS011;47394;41.366;-8.738;2022-12-07T15:20:37;10.53;;;6.90;;
61525;SDS011;47394;41.366;-8.738;2022-12-07T15:23:36;8.55;;;6.57;;
61525;SDS011;47394;41.366;-8.738;2022-12-07T15:26:36;11.55;;;6.35;;
61525;SDS011;47394;41.366;-8.738;2022-12-07T15:29:35;9.00;;;6.68;;
61525;SDS011;47394;41.366;-8.738;2022-12-07T15:32:36;9.65;;;6.80;;
61525;SDS011;47394;41.366;-8.738;2022-12-07T15:35:39;10.85;;;7.10;;
61525;SDS011;47394;41.366;-8.738;2022-12-07T15:38:38;12.05;;;7.18;;
61525;SDS011;47394;41.366;-8.738;2022-12-07T15:41:38;12.70;;;7.50;;
61525;SDS011;47394;41.366;-8.738;2022-12-07T15:44:37;11.85;;;8.05;;
61525;SDS011;47394;41.366;-8.738;2022-12-07T15:47:38;12.48;;;7.82;;
61525;SDS011;47394;41.366;-8.738;2022-12-07T15:50:37;15.18;;;8.20;;
61525;SDS011;47394;41.366;-8.738;2022-12-07T15:53:37;10.45;;;7.78;;
61525;SDS011;47394;41.366;-8.738;2022-12-07T15:56:36;13.95;;;8.57;;
61525;SDS011;47394;41.366;-8.738;2022-12-07T15:59:40;12.82;;;9.50;;
61525;SDS011;47394;41.366;-8.738;2022-12-07T16:02:39;18.63;;;10.18;;
61525;SDS011;47394;41.366;-8.738;2022-12-07T16:05:38;16.73;;;10.02;;
61525;SDS011;47394;41.366;-8.738;2022-12-07T16:08:41;20.85;;;11.30;;
61525;SDS011;47394;41.366;-8.738;2022-12-07T16:11:41;21.70;;;11.20;;
61525;SDS011;47394;41.366;-8.738;2022-12-07T16:14:40;17.75;;;10.93;;
61525;SDS011;47394;41.366;-8.738;2022-12-07T16:17:39;17.02;;;11.25;;
61525;SDS011;47394;41.366;-8.738;2022-12-07T16:20:39;17.80;;;10.70;;
61525;SDS011;47394;41.366;-8.738;2022-12-07T16:23:39;16.80;;;10.73;;
61525;SDS011;47394;41.366;-8.738;2022-12-07T16:26:38;16.73;;;9.77;;
61525;SDS011;47394;41.366;-8.738;2022-12-07T16:29:37;19.52;;;10.93;;
61525;SDS011;47394;41.366;-8.738;2022-12-07T16:32:37;15.68;;;10.38;;
61525;SDS011;47394;41.366;-8.738;2022-12-07T16:35:38;12.35;;;9.57;;
61525;SDS011;47394;41.366;-8.738;2022-12-07T16:38:37;15.52;;;9.75;;
61525;SDS011;47394;41.366;-8.738;2022-12-07T16:41:37;13.40;;;9.50;;
61525;SDS011;47394;41.366;-8.738;2022-12-07T16:44:36;16.20;;;9.20;;
61525;SDS011;47394;41.366;-8.738;2022-12-07T16:47:37;12.13;;;7.97;;
61525;SDS011;47394;41.366;-8.738;2022-12-07T16:50:41;12.18;;;8.27;;
61525;SDS011;47394;41.366;-8.738;2022-12-07T16:53:43;13.90;;;9.02;;
61525;SDS011;47394;41.366;-8.738;2022-12-07T16:56:43;16.08;;;10.27;;
61525;SDS011;47394;41.366;-8.738;2022-12-07T16:59:42;16.75;;;10.85;;
61525;SDS011;47394;41.366;-8.738;2022-12-07T17:02:45;17.52;;;10.75;;
61525;SDS011;47394;41.366;-8.738;2022-12-07T17:05:45;14.73;;;9.82;;
61525;SDS011;47394;41.366;-8.738;2022-12-07T17:08:45;13.15;;;8.93;;
61525;SDS011;47394;41.366;-8.738;2022-12-07T17:11:44;11.20;;;8.05;;
61525;SDS011;47394;41.366;-8.738;2022-12-07T17:14:44;10.80;;;6.88;;
61525;SDS011;47394;41.366;-8.738;2022-12-07T17:17:47;11.07;;;8.10;;
61525;SDS011;47394;41.366;-8.738;2022-12-07T17:20:49;11.25;;;7.47;;
61525;SDS011;47394;41.366;-8.738;2022-12-07T17:23:50;17.25;;;7.43;;
61525;SDS011;47394;41.366;-8.738;2022-12-07T17:26:49;11.25;;;6.95;;
61525;SDS011;47394;41.366;-8.738;2022-12-07T17:29:48;14.23;;;7.53;;
61525;SDS011;47394;41.366;-8.738;2022-12-07T17:32:50;12.27;;;7.95;;
61525;SDS011;47394;41.366;-8.738;2022-12-07T17:35:50;10.02;;;7.85;;
61525;SDS011;47394;41.366;-8.738;2022-12-07T17:38:49;17.58;;;9.50;;
61525;SDS011;47394;41.366;-8.738;2022-12-07T17:41:48;17.23;;;10.60;;
61525;SDS011;47394;41.366;-8.738;2022-12-07T17:44:50;20.20;;;10.98;;
61525;SDS011;47394;41.366;-8.738;2022-12-07T17:47:50;18.42;;;11.85;;
61525;SDS011;47394;41.366;-8.738;2022-12-07T17:50:49;21.83;;;13.73;;
61525;SDS011;47394;41.366;-8.738;2022-12-07T17:54:07;20.85;;;14.25;;
61525;SDS011;47394;41.366;-8.738;2022-12-07T17:57:07;20.63;;;12.52;;
61525;SDS011;47394;41.366;-8.738;2022-12-07T18:00:06;18.27;;;12.45;;
61525;SDS011;47394;41.366;-8.738;2022-12-07T18:03:09;18.85;;;13.30;;
61525;SDS011;47394;41.366;-8.738;2022-12-07T18:06:09;18.23;;;12.70;;
61525;SDS011;47394;41.366;-8.738;2022-12-07T18:09:08;21.20;;;13.52;;
61525;SDS011;47394;41.366;-8.738;2022-12-07T18:12:08;18.75;;;12.60;;
61525;SDS011;47394;41.366;-8.738;2022-12-07T18:15:26;23.90;;;13.63;;
61525;SDS011;47394;41.366;-8.738;2022-12-07T18:18:26;20.63;;;11.98;;
61525;SDS011;47394;41.366;-8.738;2022-12-07T18:21:26;23.00;;;11.85;;
61525;SDS011;47394;41.366;-8.738;2022-12-07T18:24:27;22.98;;;11.52;;
61525;SDS011;47394;41.366;-8.738;2022-12-07T18:27:26;17.75;;;12.30;;
61525;SDS011;47394;41.366;-8.738;2022-12-07T18:30:25;24.00;;;12.75;;
61525;SDS011;47394;41.366;-8.738;2022-12-07T18:33:25;20.30;;;12.07;;
61525;SDS011;47394;41.366;-8.738;2022-12-07T18:36:25;19.52;;;11.55;;
61525;SDS011;47394;41.366;-8.738;2022-12-07T18:39:26;20.92;;;12.02;;
61525;SDS011;47394;41.366;-8.738;2022-12-07T18:42:25;23.20;;;12.75;;
61525;SDS011;47394;41.366;-8.738;2022-12-07T18:45:25;23.77;;;13.15;;
61525;SDS011;47394;41.366;-8.738;2022-12-07T18:48:25;22.30;;;13.00;;
61525;SDS011;47394;41.366;-8.738;2022-12-07T18:51:24;19.17;;;13.43;;
61525;SDS011;47394;41.366;-8.738;2022-12-07T18:54:24;18.40;;;12.77;;
61525;SDS011;47394;41.366;-8.738;2022-12-07T18:57:25;21.17;;;13.70;;
61525;SDS011;47394;41.366;-8.738;2022-12-07T19:00:25;38.55;;;13.82;;
61525;SDS011;47394;41.366;-8.738;2022-12-07T19:03:25;18.80;;;13.20;;
61525;SDS011;47394;41.366;-8.738;2022-12-07T19:06:24;18.33;;;13.00;;
61525;SDS011;47394;41.366;-8.738;2022-12-07T19:09:23;21.13;;;11.98;;
61525;SDS011;47394;41.366;-8.738;2022-12-07T19:12:22;19.52;;;13.20;;